createdAt,value
2022-12-13T08:05:26.768Z,97.04
2022-12-13T08:07:40.329Z,95.75
2022-12-13T08:10:06.704Z,95.09
2022-12-13T08:12:33.056Z,94.68
2022-12-13T08:14:59.387Z,94.37
2022-12-13T08:17:25.731Z,94.52
2022-12-13T08:19:52.089Z,96.41
2022-12-13T08:22:24.103Z,97.49
2022-12-13T08:24:44.778Z,96.67
2022-12-13T08:27:11.164Z,95.60
2022-12-13T08:29:37.517Z,95.33
2022-12-13T08:32:03.964Z,94.95
2022-12-13T08:34:30.312Z,95.30
2022-12-13T08:37:01.446Z,94.73
2022-12-13T08:39:22.970Z,94.96
2022-12-13T08:41:49.390Z,95.11
2022-12-13T08:44:15.723Z,94.38
2022-12-13T08:46:42.127Z,93.33
2022-12-13T08:49:08.494Z,92.87
2022-12-13T08:51:35.793Z,91.75
2022-12-13T08:54:10.392Z,90.52
2022-12-13T08:56:27.611Z,89.29
2022-12-13T08:58:53.972Z,89.11
2022-12-13T09:01:20.336Z,88.08
2022-12-13T09:03:46.633Z,87.78
2022-12-13T09:06:13.107Z,86.90
2022-12-13T09:08:39.476Z,85.89
2022-12-13T09:11:10.475Z,85.60
2022-12-13T09:13:33.027Z,84.44
2022-12-13T09:16:01.536Z,83.72
2022-12-13T09:18:26.957Z,83.44
2022-12-13T09:20:51.333Z,84.03
2022-12-13T09:23:23.627Z,82.82
2022-12-13T09:25:50.069Z,82.48
2022-12-13T09:28:10.397Z,81.78
2022-12-13T09:30:36.775Z,81.46
2022-12-13T09:33:25.289Z,80.10
2022-12-13T09:35:29.480Z,79.62
2022-12-13T09:37:55.858Z,79.35
2022-12-13T09:40:25.401Z,78.61
2022-12-13T09:42:48.590Z,77.95
2022-12-13T09:45:22.377Z,77.07
2022-12-13T09:47:46.879Z,77.02
2022-12-13T09:50:07.636Z,77.00
2022-12-13T09:52:33.912Z,76.54
2022-12-13T09:55:00.252Z,75.86
2022-12-13T09:57:31.253Z,75.48
2022-12-13T09:59:57.231Z,74.46
2022-12-13T10:02:19.342Z,73.39
2022-12-13T10:04:45.718Z,73.16
2022-12-13T10:07:12.036Z,72.98
2022-12-13T10:09:38.411Z,72.21
2022-12-13T10:12:04.813Z,71.34
2022-12-13T10:14:31.207Z,70.81
2022-12-13T10:16:57.556Z,70.04
2022-12-13T10:19:29.369Z,69.93
2022-12-13T10:21:50.283Z,68.75
2022-12-13T10:24:26.293Z,68.62
2022-12-13T10:26:42.968Z,68.40
2022-12-13T10:29:09.251Z,67.72
2022-12-13T10:31:35.647Z,67.09
2022-12-13T10:34:01.991Z,66.69
2022-12-13T10:36:28.298Z,66.35
2022-12-13T10:38:54.690Z,66.30
2022-12-13T10:41:21.042Z,66.30
2022-12-13T10:43:47.394Z,65.77
2022-12-13T10:46:13.801Z,65.68
2022-12-13T10:48:40.102Z,65.62
2022-12-13T10:51:06.455Z,65.52
2022-12-13T10:53:32.829Z,65.49
2022-12-13T10:56:02.459Z,65.55
2022-12-13T10:58:25.548Z,65.00
2022-12-13T11:00:51.942Z,64.34
2022-12-13T11:03:19.247Z,64.47
2022-12-13T11:05:45.634Z,65.27
2022-12-13T11:08:11.995Z,64.69
2022-12-13T11:10:38.303Z,65.65
2022-12-13T11:13:04.679Z,66.27
2022-12-13T11:15:31.049Z,65.64
2022-12-13T11:17:57.371Z,66.23
2022-12-13T11:20:23.734Z,66.04
2022-12-13T11:22:50.110Z,65.10
2022-12-13T11:25:16.429Z,64.49
2022-12-13T11:27:43.009Z,65.08
2022-12-13T11:30:09.282Z,65.49
2022-12-13T11:32:35.669Z,64.64
2022-12-13T11:35:04.500Z,64.48
2022-12-13T11:37:28.495Z,64.10
2022-12-13T11:40:01.881Z,63.75
2022-12-13T11:42:21.306Z,63.55
2022-12-13T11:44:48.220Z,62.98
2022-12-13T11:47:13.990Z,62.71
2022-12-13T11:49:40.299Z,62.04
2022-12-13T11:52:06.687Z,61.65
2022-12-13T11:54:33.162Z,61.29
2022-12-13T11:57:00.371Z,60.77
2022-12-13T11:59:27.158Z,60.54
2022-12-13T12:01:52.219Z,60.29
2022-12-13T12:04:18.542Z,60.11
2022-12-13T12:06:47.284Z,59.23
2022-12-13T12:09:11.287Z,59.76
2022-12-13T12:11:37.636Z,60.90
2022-12-13T12:14:03.988Z,63.24
2022-12-13T12:16:30.424Z,62.83
2022-12-13T12:19:01.304Z,61.80
2022-12-13T12:21:23.119Z,61.07
2022-12-13T12:23:52.630Z,60.40
2022-12-13T12:26:15.782Z,59.85
2022-12-13T12:28:44.126Z,59.45
2022-12-13T12:31:08.518Z,59.30
2022-12-13T12:33:34.818Z,50.29
2022-12-13T12:36:01.166Z,50.56
2022-12-13T12:38:28.121Z,51.52
2022-12-13T12:41:15.557Z,51.82
2022-12-13T12:43:20.212Z,53.75
2022-12-13T12:45:56.397Z,56.14
2022-12-13T12:50:43.139Z,57.28
2022-12-13T12:53:05.690Z,57.83
2022-12-13T12:55:32.076Z,58.29
2022-12-13T12:57:58.439Z,58.87
2022-12-13T13:00:24.947Z,59.38
2022-12-13T13:02:51.374Z,59.89
2022-12-13T13:05:17.621Z,60.44
2022-12-13T13:07:44.015Z,60.85
2022-12-13T13:10:16.247Z,61.24
2022-12-13T13:12:36.672Z,61.58
2022-12-13T13:15:03.054Z,61.95
2022-12-13T13:17:29.372Z,62.29
2022-12-13T13:20:05.404Z,62.62
2022-12-13T14:02:07.846Z,68.24
2022-12-13T14:04:34.139Z,67.63
2022-12-13T14:07:01.247Z,69.54
2022-12-13T14:09:26.840Z,70.17
2022-12-13T14:11:53.161Z,69.56
2022-12-13T14:14:21.803Z,69.26
2022-12-13T14:16:45.883Z,68.95
2022-12-13T14:19:12.284Z,68.88
2022-12-13T14:21:38.710Z,68.76
2022-12-13T14:24:05.054Z,68.70
2022-12-13T14:26:31.412Z,68.69
2022-12-13T14:28:57.793Z,68.83
2022-12-13T14:31:24.137Z,68.83
2022-12-13T14:33:50.440Z,68.82
2022-12-13T14:36:16.799Z,68.87
2022-12-13T14:38:43.170Z,68.94
2022-12-13T14:41:12.513Z,69.15
2022-12-13T14:43:38.843Z,69.26
2022-12-13T14:46:05.199Z,69.41
2022-12-13T14:48:31.534Z,69.65
2022-12-13T14:50:57.894Z,69.79
2022-12-13T14:53:24.608Z,70.07
2022-12-13T14:55:50.615Z,70.38
2022-12-13T14:58:16.953Z,70.40
2022-12-13T15:00:43.431Z,70.54
2022-12-13T15:03:09.673Z,70.55
2022-12-13T15:05:35.982Z,70.43
2022-12-13T15:08:10.921Z,70.51
2022-12-13T15:10:28.707Z,70.69
2022-12-13T15:12:55.040Z,70.67
2022-12-13T15:15:21.454Z,70.79
2022-12-13T15:17:47.828Z,70.97
2022-12-13T15:20:14.298Z,70.98
2022-12-13T15:22:40.616Z,71.15
2022-12-13T15:25:06.968Z,71.30
2022-12-13T15:27:33.341Z,71.40
2022-12-13T15:29:59.698Z,71.38
2022-12-13T15:32:26.077Z,71.56
2022-12-13T15:34:52.441Z,71.73
2022-12-13T15:37:28.624Z,71.97
2022-12-13T15:39:47.967Z,72.16
2022-12-13T15:42:11.448Z,72.38
2022-12-13T15:44:37.764Z,72.52
2022-12-13T15:47:04.186Z,72.78
2022-12-13T15:49:30.505Z,73.05
2022-12-13T15:51:56.852Z,73.28
2022-12-13T15:54:23.303Z,73.53
2022-12-13T15:56:49.641Z,73.79
2022-12-13T15:59:16.007Z,73.90
2022-12-13T16:01:42.401Z,74.25
2022-12-13T16:04:08.708Z,74.47
2022-12-13T16:06:35.102Z,74.66
2022-12-13T16:09:01.538Z,74.91
2022-12-13T16:11:27.859Z,75.15
2022-12-13T16:13:58.509Z,75.22
2022-12-13T16:16:26.669Z,75.47
2022-12-13T16:18:46.891Z,75.68
2022-12-13T16:21:13.300Z,75.84
2022-12-13T16:23:39.613Z,76.03
2022-12-13T16:26:09.207Z,76.19
2022-12-13T16:28:32.335Z,76.50
2022-12-13T16:30:58.733Z,76.66
2022-12-13T16:33:26.521Z,76.73
2022-12-13T16:35:51.418Z,77.03
2022-12-13T16:38:26.476Z,77.15
2022-12-13T16:40:44.098Z,77.29
2022-12-13T16:43:10.434Z,77.35
2022-12-13T16:45:43.803Z,77.50
2022-12-13T16:48:03.199Z,77.69
2022-12-13T16:50:29.526Z,77.92
2022-12-13T16:52:55.879Z,78.03
2022-12-13T16:55:22.276Z,78.15
2022-12-13T16:57:48.678Z,78.32
2022-12-13T17:00:15.063Z,78.29
2022-12-13T17:02:41.432Z,78.38
2022-12-13T17:05:07.804Z,78.50
2022-12-13T17:07:34.308Z,78.61
2022-12-13T17:10:00.602Z,78.90
2022-12-13T17:12:26.923Z,79.00
2022-12-13T17:14:53.305Z,79.07
2022-12-13T17:17:19.713Z,79.19
2022-12-13T17:19:46.046Z,79.13
2022-12-13T17:22:12.357Z,78.94
2022-12-13T17:24:38.738Z,78.89
2022-12-13T17:27:05.114Z,78.88
2022-12-13T17:29:31.503Z,79.05
2022-12-13T17:31:57.852Z,79.11
2022-12-13T17:34:24.243Z,80.04
2022-12-13T17:36:50.613Z,80.24
2022-12-13T17:39:17.001Z,80.41
2022-12-13T17:41:43.299Z,81.09
2022-12-13T17:44:09.722Z,81.49
2022-12-13T17:46:36.102Z,81.60
2022-12-13T17:49:02.409Z,81.75
2022-12-13T17:51:28.791Z,81.55
2022-12-13T17:53:55.125Z,81.72
2022-12-13T17:56:21.501Z,81.63
2022-12-13T17:58:47.845Z,81.49
2022-12-13T18:01:14.224Z,81.60
2022-12-13T18:03:40.525Z,81.80
2022-12-13T18:06:06.840Z,81.93
2022-12-13T18:08:33.198Z,82.11
2022-12-13T18:11:30.772Z,82.29
2022-12-13T18:13:26.306Z,82.34
2022-12-13T18:15:52.320Z,82.59
2022-12-13T18:18:18.649Z,82.89
2022-12-13T18:20:45.085Z,82.92
2022-12-13T18:23:11.381Z,83.10
2022-12-13T18:25:37.743Z,83.15
2022-12-13T18:28:04.084Z,83.31
2022-12-13T18:30:30.426Z,83.49
2022-12-13T18:32:57.393Z,83.68
2022-12-13T18:35:23.711Z,83.93
2022-12-13T18:37:50.094Z,84.10
2022-12-13T18:40:16.420Z,90.46
2022-12-13T18:42:44.511Z,94.07
2022-12-13T18:45:09.155Z,93.70
2022-12-13T18:47:35.549Z,92.43
2022-12-13T18:50:01.896Z,91.63
2022-12-13T18:52:28.306Z,91.09
2022-12-13T18:54:54.954Z,90.59
2022-12-13T18:57:21.004Z,90.29
2022-12-13T18:59:54.454Z,90.19
2022-12-13T19:02:13.714Z,89.97
2022-12-13T19:04:40.032Z,89.88
2022-12-13T19:07:06.462Z,89.85
2022-12-13T19:09:32.775Z,89.78
2022-12-13T19:11:59.110Z,89.75
2022-12-13T19:14:27.265Z,89.77
2022-12-13T19:16:51.839Z,89.87
2022-12-13T19:19:18.198Z,89.91
2022-12-13T19:21:44.543Z,90.01
2022-12-13T19:24:11.070Z,90.12
2022-12-13T19:26:37.257Z,90.29
2022-12-13T19:29:03.639Z,90.32
2022-12-13T19:31:32.272Z,90.36
2022-12-13T19:33:56.326Z,90.53
2022-12-13T19:36:22.662Z,90.70
2022-12-13T19:38:49.014Z,90.85
2022-12-13T19:41:15.375Z,91.00
2022-12-13T19:43:41.692Z,91.16
2022-12-13T19:46:08.131Z,91.22
2022-12-13T19:48:34.414Z,91.32
2022-12-13T19:51:00.750Z,91.37
2022-12-13T19:53:27.488Z,91.36
2022-12-13T19:55:53.447Z,91.46
2022-12-13T19:58:19.792Z,91.61
2022-12-13T20:00:46.188Z,91.66
2022-12-13T20:03:12.516Z,91.75
2022-12-13T20:05:43.935Z,91.95
2022-12-13T20:08:05.160Z,92.21
2022-12-13T20:10:31.538Z,92.34
2022-12-13T20:12:57.885Z,92.47
2022-12-13T20:15:24.259Z,92.56
2022-12-13T20:17:50.568Z,92.67
2022-12-13T20:20:16.964Z,92.81
2022-12-13T20:22:43.297Z,92.94
2022-12-13T20:25:09.627Z,93.04
2022-12-13T20:27:35.999Z,93.19
2022-12-13T20:30:02.378Z,93.34
2022-12-13T20:32:28.729Z,93.42
2022-12-13T20:34:55.315Z,93.50
2022-12-13T20:37:21.482Z,93.64
2022-12-13T20:39:47.831Z,93.71
2022-12-13T20:42:14.133Z,93.79
2022-12-13T20:44:40.501Z,93.99
2022-12-13T20:47:06.863Z,94.09
2022-12-13T20:49:33.150Z,94.09
2022-12-13T20:51:59.507Z,94.24
2022-12-13T20:54:25.966Z,94.34
2022-12-13T20:56:52.316Z,94.48
2022-12-13T20:59:18.690Z,94.51
2022-12-13T21:01:45.078Z,94.68
2022-12-13T21:04:11.392Z,94.83
2022-12-13T21:06:37.783Z,95.02
2022-12-13T21:09:04.196Z,95.04
2022-12-13T21:11:30.559Z,95.03
2022-12-13T21:13:57.659Z,95.18
2022-12-13T21:16:23.344Z,95.22
2022-12-13T21:18:49.646Z,95.40
2022-12-13T21:21:15.991Z,95.56
2022-12-13T21:23:42.328Z,95.61
2022-12-13T21:26:08.658Z,95.70
2022-12-13T21:28:35.047Z,95.82
2022-12-13T21:31:01.355Z,95.90
2022-12-13T21:33:28.006Z,95.94
2022-12-13T21:35:54.051Z,95.89
2022-12-13T21:38:20.397Z,95.92
2022-12-13T21:40:46.775Z,95.99
2022-12-13T21:43:13.144Z,96.19
2022-12-13T21:45:39.550Z,96.27
2022-12-13T21:48:05.847Z,96.41
2022-12-13T21:50:32.209Z,96.62
2022-12-13T21:52:58.553Z,96.73
2022-12-13T21:55:40.233Z,96.84
2022-12-13T21:57:51.255Z,96.96
2022-12-13T22:00:17.580Z,97.03
2022-12-13T22:02:43.962Z,97.07
2022-12-13T22:05:10.344Z,97.12
2022-12-13T22:07:36.724Z,97.27
2022-12-13T22:10:03.108Z,97.36
2022-12-13T22:12:29.448Z,97.39
2022-12-13T22:14:55.812Z,97.41
2022-12-13T22:17:22.185Z,97.52
2022-12-13T22:19:49.158Z,97.72
2022-12-13T22:22:14.901Z,97.79
2022-12-13T22:24:41.191Z,97.92
2022-12-13T22:27:07.570Z,98.02
2022-12-13T22:29:33.953Z,98.17
2022-12-13T22:32:00.296Z,98.16
2022-12-13T22:34:26.610Z,98.31
2022-12-13T22:36:52.947Z,98.34
2022-12-13T22:39:19.274Z,98.30
2022-12-13T22:41:45.652Z,98.31
2022-12-13T22:44:11.966Z,98.29
2022-12-13T22:46:38.340Z,98.33
2022-12-13T22:49:04.687Z,98.37
2022-12-13T22:51:31.024Z,98.45
2022-12-13T22:53:57.339Z,98.54
2022-12-13T22:56:23.686Z,98.59
2022-12-13T22:58:50.116Z,98.58
2022-12-13T23:01:16.640Z,98.67
2022-12-13T23:03:42.852Z,98.74
2022-12-13T23:06:09.241Z,98.81
2022-12-13T23:08:40.243Z,98.86
2022-12-13T23:11:01.895Z,98.83
2022-12-13T23:13:28.282Z,98.89
2022-12-13T23:15:54.704Z,98.85
2022-12-13T23:18:21.129Z,98.83
2022-12-13T23:20:48.539Z,98.73
2022-12-13T23:23:13.771Z,98.63
2022-12-13T23:25:42.720Z,98.64
2022-12-13T23:28:09.031Z,98.64
2022-12-13T23:30:35.466Z,98.63
2022-12-13T23:33:01.820Z,98.51
2022-12-13T23:35:28.314Z,98.45
2022-12-13T23:37:54.697Z,98.46
2022-12-13T23:40:21.082Z,98.30
2022-12-13T23:42:47.436Z,98.23
2022-12-13T23:45:13.769Z,98.20
2022-12-13T23:47:40.162Z,98.11
2022-12-13T23:50:06.550Z,98.01
2022-12-13T23:52:32.896Z,98.08
2022-12-13T23:54:59.248Z,98.18
2022-12-13T23:57:25.617Z,98.31
2022-12-13T23:59:51.944Z,98.43
